Beaufort, NC (28516)

10:16 AM EDT on October 01, 2014 (GMT -0400)
Smith | Change Station
CLOSE
Current Station
Airport
Location: Beaufort,
Elevation: 10 ft
Nearby Weather Stations

Elev 10 ft 34.73 °N, 76.66 °W | Updated 18 minutes ago

Clear
Clear
73 °F
Feels Like 73 °F
N
14
Wind Variable Wind from NNE
Gusts 18 mph

Today
High -- | Low -- °F
--% Chance of Precip.
Yesterday
High -- | Low -- °F
Precip. -- in
7:01 AM 6:50 PM
Waxing Crescent, 48% visible
Pressure 29.96 in
Visibility 10.0 miles
Clouds Clear
Dew Point 65 °F
Humidity 76%
Rainfall 0.00 in
Snow Depth Not available.
UV 4 out of 12
Pollen 3.70 out of 12
Air Quality Not available.
Flu Activity Not available.
METAR KMRH 011358Z AUTO 02012G16KT 10SM CLR 23/18 A2996 RMK AO2 SLP146 T02280183 TSNO

More Conditions Fewer Conditions

Pressure 29.96 in
Visibility 10.0 miles
Clouds Clear
Dew Point 65 °F
Humidity 76%
Rainfall 0.00 in
Snow Depth Not available.
UV 4 out of 12
Pollen 3.70 out of 12
Air Quality Not available.
Flu Activity Not available.
METAR KMRH 011358Z AUTO 02012G16KT 10SM CLR 23/18 A2996 RMK AO2 SLP146 T02280183 TSNO

More Conditions Fewer Conditions

10-Day Weather Forecast

Almanac

Astronomy

Oct. 01, 2014 Rise Set
Actual Time 7:01 AM EDT 6:50 PM EDT
Civil Twilight 6:36 AM EDT 7:15 PM EDT
Nautical Twilight 6:06 AM EDT 7:45 PM EDT
Astronomical Twilight 5:37 AM EDT 8:14 PM EDT
Moon 1:50 PM EDT No Moon Set
Length of Visible Light 12h 39m
Length of Day
11h 49m
Tomorrow will be 2m 9s shorter.
Waxing Crescent, 48% of the Moon is Illuminated
Today
Waxing Crescent
Oct 1
First Quarter
Oct 8
Full
Oct 15
Last Quarter
Oct 23
New

Today's Extremes

State Highs State Lows

Community

WunderPhotos

Upload Photos

1,757,952 photos uploaded!

Nearby

Snow Depth

Station Depth Elevation
No new snow has been reported.

Earthquake Activity

City Distance Mag. Time & Date
No recent earthquake activity has been reported nearby.
Minimum magnitude displayed is 2.5.

Coastal Water Temperatures

Place Temperature
Beaufort, NC 73.9 °F
Johnny Mercer Pier, Wrightsville Beach, NC 77.0 °F
Hatteras, NC 73.0 °F
Oregon Inlet Marina, NC 73.9 °F

Nearby Weather Stations